sensor_id;sensor_type;location;lat;lon;timestamp;pressure;altitude;pressure_sealevel;temperature;humidity
65997;BME280;52765;52.258;21.052;2023-07-30T00:01:42;99694.56;;;19.39;100.00
65997;BME280;52765;52.258;21.052;2023-07-30T00:04:08;99695.59;;;19.38;100.00
65997;BME280;52765;52.258;21.052;2023-07-30T00:06:33;99702.75;;;19.39;100.00
65997;BME280;52765;52.258;21.052;2023-07-30T00:08:59;99695.84;;;19.36;100.00
65997;BME280;52765;52.258;21.052;2023-07-30T00:11:24;99691.22;;;19.37;100.00
65997;BME280;52765;52.258;21.052;2023-07-30T00:13:50;99695.84;;;19.36;100.00
65997;BME280;52765;52.258;21.052;2023-07-30T00:16:15;99690.59;;;19.35;100.00
65997;BME280;52765;52.258;21.052;2023-07-30T00:18:41;99697.50;;;19.37;100.00
65997;BME280;52765;52.258;21.052;2023-07-30T00:21:06;99694.78;;;19.37;100.00
65997;BME280;52765;52.258;21.052;2023-07-30T00:23:32;99691.91;;;19.32;100.00
65997;BME280;52765;52.258;21.052;2023-07-30T00:25:57;99698.56;;;19.36;100.00
65997;BME280;52765;52.258;21.052;2023-07-30T00:28:22;99702.75;;;19.39;100.00
65997;BME280;52765;52.258;21.052;2023-07-30T00:30:48;99701.06;;;19.38;100.00
65997;BME280;52765;52.258;21.052;2023-07-30T00:33:14;99696.28;;;19.33;100.00
65997;BME280;52765;52.258;21.052;2023-07-30T00:35:39;99705.78;;;19.31;100.00
65997;BME280;52765;52.258;21.052;2023-07-30T00:38:05;99707.53;;;19.25;100.00
65997;BME280;52765;52.258;21.052;2023-07-30T00:40:30;99730.59;;;19.29;100.00
65997;BME280;52765;52.258;21.052;2023-07-30T00:42:55;99724.53;;;19.27;100.00
65997;BME280;52765;52.258;21.052;2023-07-30T00:45:21;99732.50;;;19.29;100.00
65997;BME280;52765;52.258;21.052;2023-07-30T00:47:47;99726.41;;;19.27;100.00
65997;BME280;52765;52.258;21.052;2023-07-30T00:50:14;99733.09;;;19.31;100.00
65997;BME280;52765;52.258;21.052;2023-07-30T00:52:40;99731.72;;;19.21;100.00
65997;BME280;52765;52.258;21.052;2023-07-30T00:55:07;99731.66;;;19.28;100.00
65997;BME280;52765;52.258;21.052;2023-07-30T00:57:34;99732.28;;;19.30;100.00
65997;BME280;52765;52.258;21.052;2023-07-30T01:00:01;99739.16;;;19.33;100.00
65997;BME280;52765;52.258;21.052;2023-07-30T01:02:30;99736.50;;;19.26;100.00
65997;BME280;52765;52.258;21.052;2023-07-30T01:04:56;99739.09;;;19.21;100.00
65997;BME280;52765;52.258;21.052;2023-07-30T01:07:22;99728.41;;;19.19;100.00
65997;BME280;52765;52.258;21.052;2023-07-30T01:09:48;99738.28;;;19.20;100.00
65997;BME280;52765;52.258;21.052;2023-07-30T01:12:14;99729.44;;;19.18;100.00
65997;BME280;52765;52.258;21.052;2023-07-30T01:14:40;99728.63;;;19.18;100.00
65997;BME280;52765;52.258;21.052;2023-07-30T01:17:05;99738.50;;;19.19;100.00
65997;BME280;52765;52.258;21.052;2023-07-30T01:19:31;99748.34;;;19.20;100.00
65997;BME280;52765;52.258;21.052;2023-07-30T01:21:57;99745.38;;;19.21;100.00
65997;BME280;52765;52.258;21.052;2023-07-30T01:24:23;99745.16;;;19.23;100.00
65997;BME280;52765;52.258;21.052;2023-07-30T01:26:55;99746.38;;;19.27;100.00
65997;BME280;52765;52.258;21.052;2023-07-30T01:29:24;99743.97;;;19.19;100.00
65997;BME280;52765;52.258;21.052;2023-07-30T01:31:56;99750.16;;;19.26;100.00
65997;BME280;52765;52.258;21.052;2023-07-30T01:34:27;99751.84;;;19.27;100.00
65997;BME280;52765;52.258;21.052;2023-07-30T01:36:54;99750.97;;;19.27;100.00
65997;BME280;52765;52.258;21.052;2023-07-30T01:39:20;99753.72;;;19.27;100.00
65997;BME280;52765;52.258;21.052;2023-07-30T01:41:45;99749.56;;;19.24;100.00
65997;BME280;52765;52.258;21.052;2023-07-30T01:44:11;99747.06;;;19.22;100.00
65997;BME280;52765;52.258;21.052;2023-07-30T01:46:37;99753.78;;;19.20;100.00
65997;BME280;52765;52.258;21.052;2023-07-30T01:49:02;99750.47;;;19.18;100.00
65997;BME280;52765;52.258;21.052;2023-07-30T01:51:27;99750.91;;;19.15;100.00
65997;BME280;52765;52.258;21.052;2023-07-30T01:53:53;99748.81;;;19.17;100.00
65997;BME280;52765;52.258;21.052;2023-07-30T01:56:18;99752.16;;;19.19;100.00
65997;BME280;52765;52.258;21.052;2023-07-30T01:58:43;99750.09;;;19.14;100.00
65997;BME280;52765;52.258;21.052;2023-07-30T02:01:09;99755.56;;;19.14;100.00
65997;BME280;52765;52.258;21.052;2023-07-30T02:03:35;99755.56;;;19.14;100.00
65997;BME280;52765;52.258;21.052;2023-07-30T02:06:00;99757.22;;;19.15;100.00
65997;BME280;52765;52.258;21.052;2023-07-30T02:08:25;99759.25;;;19.20;100.00
65997;BME280;52765;52.258;21.052;2023-07-30T02:10:55;99752.16;;;19.19;100.00
65997;BME280;52765;52.258;21.052;2023-07-30T02:13:21;99757.59;;;19.19;100.00
65997;BME280;52765;52.258;21.052;2023-07-30T02:15:46;99762.22;;;19.18;100.00
65997;BME280;52765;52.258;21.052;2023-07-30T02:18:12;99761.47;;;19.11;100.00
65997;BME280;52765;52.258;21.052;2023-07-30T02:20:37;99755.84;;;19.06;100.00
65997;BME280;52765;52.258;21.052;2023-07-30T02:23:02;99774.28;;;19.11;100.00
65997;BME280;52765;52.258;21.052;2023-07-30T02:25:28;99766.53;;;19.08;100.00
65997;BME280;52765;52.258;21.052;2023-07-30T02:27:53;99768.06;;;19.03;100.00
65997;BME280;52765;52.258;21.052;2023-07-30T02:30:19;99790.75;;;19.04;100.00
65997;BME280;52765;52.258;21.052;2023-07-30T02:32:44;99775.84;;;19.00;100.00
65997;BME280;52765;52.258;21.052;2023-07-30T02:35:10;99784.28;;;18.98;100.00
65997;BME280;52765;52.258;21.052;2023-07-30T02:37:35;99792.06;;;18.95;100.00
65997;BME280;52765;52.258;21.052;2023-07-30T02:40:00;99778.66;;;18.93;100.00
65997;BME280;52765;52.258;21.052;2023-07-30T02:42:30;99775.09;;;18.93;100.00
65997;BME280;52765;52.258;21.052;2023-07-30T02:44:55;99783.97;;;18.88;100.00
65997;BME280;52765;52.258;21.052;2023-07-30T02:47:20;99778.72;;;18.86;100.00
65997;BME280;52765;52.258;21.052;2023-07-30T02:49:46;99784.06;;;18.75;100.00
65997;BME280;52765;52.258;21.052;2023-07-30T02:52:11;99790.59;;;18.74;100.00
65997;BME280;52765;52.258;21.052;2023-07-30T02:54:36;99773.38;;;18.73;100.00
65997;BME280;52765;52.258;21.052;2023-07-30T02:57:02;99780.72;;;18.73;100.00
65997;BME280;52765;52.258;21.052;2023-07-30T02:59:27;99783.84;;;18.76;100.00
65997;BME280;52765;52.258;21.052;2023-07-30T03:01:53;99778.00;;;18.73;100.00
65997;BME280;52765;52.258;21.052;2023-07-30T03:04:18;99781.38;;;18.68;100.00
65997;BME280;52765;52.258;21.052;2023-07-30T03:06:44;99779.53;;;18.68;100.00
65997;BME280;52765;52.258;21.052;2023-07-30T03:09:09;99778.22;;;18.71;100.00
65997;BME280;52765;52.258;21.052;2023-07-30T03:11:34;99783.44;;;18.73;100.00
65997;BME280;52765;52.258;21.052;2023-07-30T03:14:00;99779.69;;;18.74;100.00
65997;BME280;52765;52.258;21.052;2023-07-30T03:16:25;99779.69;;;18.74;100.00
65997;BME280;52765;52.258;21.052;2023-07-30T03:18:50;99792.03;;;18.76;100.00
65997;BME280;52765;52.258;21.052;2023-07-30T03:21:16;99792.03;;;18.76;100.00
65997;BME280;52765;52.258;21.052;2023-07-30T03:23:41;99793.03;;;18.82;100.00
65997;BME280;52765;52.258;21.052;2023-07-30T03:26:09;99792.19;;;18.81;100.00
65997;BME280;52765;52.258;21.052;2023-07-30T03:28:35;99787.88;;;18.74;100.00
65997;BME280;52765;52.258;21.052;2023-07-30T03:31:00;99797.69;;;18.75;100.00
65997;BME280;52765;52.258;21.052;2023-07-30T03:33:26;99798.63;;;18.68;100.00
65997;BME280;52765;52.258;21.052;2023-07-30T03:35:51;99798.84;;;18.67;100.00
65997;BME280;52765;52.258;21.052;2023-07-30T03:38:16;99801.50;;;18.74;100.00
65997;BME280;52765;52.258;21.052;2023-07-30T03:40:42;99794.16;;;18.74;100.00
65997;BME280;52765;52.258;21.052;2023-07-30T03:43:08;99802.72;;;18.78;100.00
65997;BME280;52765;52.258;21.052;2023-07-30T03:45:33;99802.28;;;18.81;100.00
65997;BME280;52765;52.258;21.052;2023-07-30T03:47:58;99800.78;;;18.85;100.00
65997;BME280;52765;52.258;21.052;2023-07-30T03:50:24;99799.13;;;18.84;100.00
65997;BME280;52765;52.258;21.052;2023-07-30T03:52:49;99810.19;;;18.89;100.00
65997;BME280;52765;52.258;21.052;2023-07-30T03:55:15;99805.78;;;18.88;100.00
65997;BME280;52765;52.258;21.052;2023-07-30T03:57:40;99808.97;;;18.85;100.00
65997;BME280;52765;52.258;21.052;2023-07-30T04:00:06;99812.13;;;18.82;100.00
65997;BME280;52765;52.258;21.052;2023-07-30T04:02:32;99808.34;;;18.83;100.00
65997;BME280;52765;52.258;21.052;2023-07-30T04:04:58;99802.50;;;18.79;100.00
65997;BME280;52765;52.258;21.052;2023-07-30T04:07:23;99804.00;;;18.75;100.00
65997;BME280;52765;52.258;21.052;2023-07-30T04:09:48;99812.91;;;18.64;100.00
65997;BME280;52765;52.258;21.052;2023-07-30T04:12:14;99815.25;;;18.60;100.00
65997;BME280;52765;52.258;21.052;2023-07-30T04:14:39;99819.59;;;18.68;100.00
65997;BME280;52765;52.258;21.052;2023-07-30T04:17:05;99826.06;;;18.74;100.00
65997;BME280;52765;52.258;21.052;2023-07-30T04:19:30;99823.88;;;18.82;100.00
65997;BME280;52765;52.258;21.052;2023-07-30T04:21:56;99836.44;;;18.90;100.00
65997;BME280;52765;52.258;21.052;2023-07-30T04:24:21;99827.94;;;18.98;100.00
65997;BME280;52765;52.258;21.052;2023-07-30T04:26:47;99830.84;;;19.03;100.00
65997;BME280;52765;52.258;21.052;2023-07-30T04:29:12;99843.75;;;19.15;100.00
65997;BME280;52765;52.258;21.052;2023-07-30T04:31:39;99859.75;;;19.11;100.00
65997;BME280;52765;52.258;21.052;2023-07-30T04:34:04;99858.81;;;18.99;100.00
65997;BME280;52765;52.258;21.052;2023-07-30T04:36:30;99866.94;;;18.80;100.00
65997;BME280;52765;52.258;21.052;2023-07-30T04:38:55;99864.25;;;18.74;100.00
65997;BME280;52765;52.258;21.052;2023-07-30T04:41:21;99864.63;;;18.77;100.00
65997;BME280;52765;52.258;21.052;2023-07-30T04:43:47;99871.75;;;18.78;100.00
65997;BME280;52765;52.258;21.052;2023-07-30T04:46:12;99870.38;;;18.69;100.00
65997;BME280;52765;52.258;21.052;2023-07-30T04:48:38;99873.19;;;18.56;100.00
65997;BME280;52765;52.258;21.052;2023-07-30T04:51:03;99874.84;;;18.57;100.00
65997;BME280;52765;52.258;21.052;2023-07-30T04:53:29;99871.53;;;18.55;100.00
65997;BME280;52765;52.258;21.052;2023-07-30T04:55:55;99873.84;;;18.51;100.00
65997;BME280;52765;52.258;21.052;2023-07-30T04:58:22;99879.09;;;18.53;100.00
65997;BME280;52765;52.258;21.052;2023-07-30T05:00:48;99881.34;;;18.62;100.00
65997;BME280;52765;52.258;21.052;2023-07-30T05:03:14;99899.34;;;18.63;100.00
65997;BME280;52765;52.258;21.052;2023-07-30T05:05:39;99888.69;;;18.62;100.00
65997;BME280;52765;52.258;21.052;2023-07-30T05:08:05;99890.03;;;18.46;100.00
65997;BME280;52765;52.258;21.052;2023-07-30T05:10:30;99892.56;;;18.47;100.00
65997;BME280;52765;52.258;21.052;2023-07-30T05:12:56;99898.00;;;18.47;100.00
65997;BME280;52765;52.258;21.052;2023-07-30T05:15:21;99898.19;;;18.53;100.00
65997;BME280;52765;52.258;21.052;2023-07-30T05:17:46;99901.53;;;18.55;100.00
65997;BME280;52765;52.258;21.052;2023-07-30T05:20:12;99906.94;;;18.61;100.00
65997;BME280;52765;52.258;21.052;2023-07-30T05:22:37;99905.09;;;18.55;100.00
65997;BME280;52765;52.258;21.052;2023-07-30T05:25:03;99912.00;;;18.58;100.00
65997;BME280;52765;52.258;21.052;2023-07-30T05:27:28;99913.41;;;18.67;100.00
65997;BME280;52765;52.258;21.052;2023-07-30T05:29:56;99917.53;;;18.76;100.00
65997;BME280;52765;52.258;21.052;2023-07-30T05:32:22;99916.63;;;18.89;100.00
65997;BME280;52765;52.258;21.052;2023-07-30T05:34:47;99923.03;;;19.01;100.00
65997;BME280;52765;52.258;21.052;2023-07-30T05:37:13;99926.84;;;19.00;100.00
65997;BME280;52765;52.258;21.052;2023-07-30T05:39:38;99937.00;;;19.12;100.00
65997;BME280;52765;52.258;21.052;2023-07-30T05:42:04;99938.19;;;19.22;100.00
65997;BME280;52765;52.258;21.052;2023-07-30T05:44:29;99935.16;;;19.31;100.00
65997;BME280;52765;52.258;21.052;2023-07-30T05:46:55;99940.19;;;19.34;100.00
65997;BME280;52765;52.258;21.052;2023-07-30T05:49:20;99943.00;;;19.46;100.00
65997;BME280;52765;52.258;21.052;2023-07-30T05:51:45;99949.16;;;19.59;100.00
65997;BME280;52765;52.258;21.052;2023-07-30T05:54:12;99943.78;;;19.71;100.00
65997;BME280;52765;52.258;21.052;2023-07-30T05:56:38;99943.69;;;19.59;100.00
65997;BME280;52765;52.258;21.052;2023-07-30T05:59:03;99943.56;;;19.54;100.00
65997;BME280;52765;52.258;21.052;2023-07-30T06:01:29;99945.75;;;19.64;100.00
65997;BME280;52765;52.258;21.052;2023-07-30T06:03:54;99944.22;;;19.50;100.00
65997;BME280;52765;52.258;21.052;2023-07-30T06:06:20;99944.16;;;19.56;100.00
65997;BME280;52765;52.258;21.052;2023-07-30T06:08:52;99950.31;;;19.52;100.00
65997;BME280;52765;52.258;21.052;2023-07-30T06:11:18;99956.56;;;19.34;100.00
65997;BME280;52765;52.258;21.052;2023-07-30T06:13:43;99952.31;;;19.38;100.00
65997;BME280;52765;52.258;21.052;2023-07-30T06:16:09;99951.91;;;19.59;100.00
65997;BME280;52765;52.258;21.052;2023-07-30T06:18:35;99946.69;;;19.76;100.00
65997;BME280;52765;52.258;21.052;2023-07-30T06:21:01;99961.06;;;19.90;100.00
65997;BME280;52765;52.258;21.052;2023-07-30T06:23:26;99963.94;;;19.95;100.00
65997;BME280;52765;52.258;21.052;2023-07-30T06:25:52;99957.63;;;19.95;100.00
65997;BME280;52765;52.258;21.052;2023-07-30T06:28:17;99953.84;;;19.77;100.00
65997;BME280;52765;52.258;21.052;2023-07-30T06:30:43;99973.00;;;19.52;100.00
65997;BME280;52765;52.258;21.052;2023-07-30T06:33:08;99973.78;;;19.34;99.47
65997;BME280;52765;52.258;21.052;2023-07-30T06:35:33;99961.66;;;19.30;99.57
65997;BME280;52765;52.258;21.052;2023-07-30T06:37:59;99961.59;;;19.37;97.98
65997;BME280;52765;52.258;21.052;2023-07-30T06:40:25;99956.72;;;19.39;97.60
65997;BME280;52765;52.258;21.052;2023-07-30T06:42:50;99950.84;;;19.60;97.93
65997;BME280;52765;52.258;21.052;2023-07-30T06:45:16;99960.78;;;19.99;96.84
65997;BME280;52765;52.258;21.052;2023-07-30T06:47:41;99951.88;;;20.22;95.91
65997;BME280;52765;52.258;21.052;2023-07-30T06:50:07;99958.25;;;20.46;95.45
65997;BME280;52765;52.258;21.052;2023-07-30T06:52:34;99954.50;;;20.59;95.40
65997;BME280;52765;52.258;21.052;2023-07-30T06:55:01;99957.41;;;20.64;94.91
65997;BME280;52765;52.258;21.052;2023-07-30T06:57:26;99958.84;;;20.48;95.99
65997;BME280;52765;52.258;21.052;2023-07-30T06:59:51;99961.22;;;20.44;97.32
65997;BME280;52765;52.258;21.052;2023-07-30T07:02:17;99965.31;;;20.54;96.39
65997;BME280;52765;52.258;21.052;2023-07-30T07:04:42;99970.03;;;20.46;96.14
65997;BME280;52765;52.258;21.052;2023-07-30T07:07:08;99970.25;;;20.45;95.76
65997;BME280;52765;52.258;21.052;2023-07-30T07:09:33;99968.78;;;20.61;94.60
65997;BME280;52765;52.258;21.052;2023-07-30T07:11:58;99959.06;;;20.65;92.94
65997;BME280;52765;52.258;21.052;2023-07-30T07:14:25;99972.28;;;20.68;91.73
65997;BME280;52765;52.258;21.052;2023-07-30T07:16:52;99969.91;;;20.72;91.50
65997;BME280;52765;52.258;21.052;2023-07-30T07:19:18;99962.06;;;20.63;90.85
65997;BME280;52765;52.258;21.052;2023-07-30T07:21:44;99971.00;;;20.70;90.66
65997;BME280;52765;52.258;21.052;2023-07-30T07:24:10;99971.13;;;20.45;92.82
65997;BME280;52765;52.258;21.052;2023-07-30T07:26:35;99978.47;;;20.63;91.52
65997;BME280;52765;52.258;21.052;2023-07-30T07:29:00;99982.69;;;20.78;91.14
65997;BME280;52765;52.258;21.052;2023-07-30T07:31:26;99970.59;;;20.97;90.07
65997;BME280;52765;52.258;21.052;2023-07-30T07:33:52;99979.44;;;21.23;89.18
65997;BME280;52765;52.258;21.052;2023-07-30T07:36:18;99985.03;;;21.16;89.92
65997;BME280;52765;52.258;21.052;2023-07-30T07:38:43;99983.50;;;21.20;89.67
65997;BME280;52765;52.258;21.052;2023-07-30T07:41:14;99979.44;;;21.23;88.44
65997;BME280;52765;52.258;21.052;2023-07-30T07:43:40;99987.19;;;21.14;87.95
65997;BME280;52765;52.258;21.052;2023-07-30T07:46:06;99987.00;;;20.85;89.04
65997;BME280;52765;52.258;21.052;2023-07-30T07:48:41;99988.78;;;20.61;87.75
65997;BME280;52765;52.258;21.052;2023-07-30T07:51:08;99981.16;;;20.33;90.01
65997;BME280;52765;52.258;21.052;2023-07-30T07:53:34;99971.81;;;20.41;90.10
65997;BME280;52765;52.258;21.052;2023-07-30T07:55:59;99965.78;;;20.50;90.64
65997;BME280;52765;52.258;21.052;2023-07-30T07:58:25;99957.22;;;20.77;89.48
65997;BME280;52765;52.258;21.052;2023-07-30T08:00:50;99977.16;;;21.20;88.35
65997;BME280;52765;52.258;21.052;2023-07-30T08:03:15;99971.22;;;21.47;87.75
65997;BME280;52765;52.258;21.052;2023-07-30T08:05:41;99975.69;;;21.59;86.24
65997;BME280;52765;52.258;21.052;2023-07-30T08:08:06;99986.28;;;21.68;84.79
65997;BME280;52765;52.258;21.052;2023-07-30T08:10:32;99983.66;;;21.61;83.51
65997;BME280;52765;52.258;21.052;2023-07-30T08:12:57;99977.47;;;21.66;85.25
65997;BME280;52765;52.258;21.052;2023-07-30T08:15:23;99980.44;;;21.64;83.68
65997;BME280;52765;52.258;21.052;2023-07-30T08:17:48;99992.97;;;21.72;83.61
65997;BME280;52765;52.258;21.052;2023-07-30T08:20:16;99984.63;;;21.67;82.06
65997;BME280;52765;52.258;21.052;2023-07-30T08:22:42;99990.25;;;21.60;81.69
65997;BME280;52765;52.258;21.052;2023-07-30T08:25:08;99984.25;;;21.63;82.27
65997;BME280;52765;52.258;21.052;2023-07-30T08:27:36;99982.94;;;21.89;81.08
65997;BME280;52765;52.258;21.052;2023-07-30T08:30:01;99981.44;;;22.22;79.57
65997;BME280;52765;52.258;21.052;2023-07-30T08:32:27;99996.09;;;22.28;77.62
65997;BME280;52765;52.258;21.052;2023-07-30T08:34:52;100002.56;;;22.10;78.33
65997;BME280;52765;52.258;21.052;2023-07-30T08:37:18;99991.34;;;22.11;80.07
65997;BME280;52765;52.258;21.052;2023-07-30T08:39:43;99989.91;;;22.32;80.15
65997;BME280;52765;52.258;21.052;2023-07-30T08:42:08;99986.72;;;22.52;77.83
65997;BME280;52765;52.258;21.052;2023-07-30T08:44:34;99991.53;;;22.45;79.43
65997;BME280;52765;52.258;21.052;2023-07-30T08:47:00;99998.00;;;22.27;78.34
65997;BME280;52765;52.258;21.052;2023-07-30T08:49:25;99996.84;;;22.35;78.61
65997;BME280;52765;52.258;21.052;2023-07-30T08:51:53;99998.09;;;22.44;76.92
65997;BME280;52765;52.258;21.052;2023-07-30T08:54:20;100004.31;;;22.40;75.89
65997;BME280;52765;52.258;21.052;2023-07-30T08:56:46;99996.31;;;22.38;76.47
65997;BME280;52765;52.258;21.052;2023-07-30T08:59:13;100000.66;;;22.63;74.67
65997;BME280;52765;52.258;21.052;2023-07-30T09:01:39;100010.91;;;22.03;74.91
65997;BME280;52765;52.258;21.052;2023-07-30T09:04:06;100001.66;;;21.92;77.64
65997;BME280;52765;52.258;21.052;2023-07-30T09:06:32;100008.28;;;22.20;77.05
65997;BME280;52765;52.258;21.052;2023-07-30T09:08:58;100006.47;;;22.38;77.30
65997;BME280;52765;52.258;21.052;2023-07-30T09:11:26;100003.41;;;22.63;77.07
65997;BME280;52765;52.258;21.052;2023-07-30T09:13:55;100001.94;;;22.72;74.43
65997;BME280;52765;52.258;21.052;2023-07-30T09:16:26;99995.41;;;22.90;72.31
65997;BME280;52765;52.258;21.052;2023-07-30T09:18:52;99998.88;;;23.14;71.22
65997;BME280;52765;52.258;21.052;2023-07-30T09:21:19;100006.78;;;23.44;70.78
65997;BME280;52765;52.258;21.052;2023-07-30T09:23:46;99999.72;;;23.49;70.35
65997;BME280;52765;52.258;21.052;2023-07-30T09:26:12;100006.53;;;23.46;67.14
65997;BME280;52765;52.258;21.052;2023-07-30T09:28:39;100008.59;;;23.56;67.08
65997;BME280;52765;52.258;21.052;2023-07-30T09:31:06;100014.31;;;23.71;66.30
65997;BME280;52765;52.258;21.052;2023-07-30T09:33:33;100025.31;;;23.71;67.03
65997;BME280;52765;52.258;21.052;2023-07-30T09:36:02;100015.25;;;23.77;67.29
65997;BME280;52765;52.258;21.052;2023-07-30T09:38:28;100015.34;;;23.82;66.37
65997;BME280;52765;52.258;21.052;2023-07-30T09:41:00;100013.19;;;23.67;65.98
65997;BME280;52765;52.258;21.052;2023-07-30T09:43:32;100019.03;;;23.37;67.62
65997;BME280;52765;52.258;21.052;2023-07-30T09:46:02;100024.19;;;23.67;68.47
65997;BME280;52765;52.258;21.052;2023-07-30T09:48:30;100022.31;;;23.90;67.11
65997;BME280;52765;52.258;21.052;2023-07-30T09:50:58;100019.50;;;23.85;65.65
65997;BME280;52765;52.258;21.052;2023-07-30T09:53:24;100027.19;;;23.65;66.64
65997;BME280;52765;52.258;21.052;2023-07-30T09:55:50;100018.78;;;23.55;66.31
65997;BME280;52765;52.258;21.052;2023-07-30T09:58:16;100022.03;;;23.35;68.43
65997;BME280;52765;52.258;21.052;2023-07-30T10:00:42;100024.19;;;23.33;69.20
65997;BME280;52765;52.258;21.052;2023-07-30T10:03:10;100021.19;;;23.35;70.08
65997;BME280;52765;52.258;21.052;2023-07-30T10:05:38;100016.22;;;23.32;69.05
65997;BME280;52765;52.258;21.052;2023-07-30T10:08:19;100024.94;;;23.12;70.25
65997;BME280;52765;52.258;21.052;2023-07-30T10:10:46;100023.75;;;23.41;69.21
65997;BME280;52765;52.258;21.052;2023-07-30T10:13:12;100030.16;;;23.81;68.08
65997;BME280;52765;52.258;21.052;2023-07-30T10:15:38;100017.69;;;24.12;66.26
65997;BME280;52765;52.258;21.052;2023-07-30T10:18:04;100007.16;;;24.48;64.51
65997;BME280;52765;52.258;21.052;2023-07-30T10:20:31;100006.41;;;24.80;62.55
65997;BME280;52765;52.258;21.052;2023-07-30T10:22:59;100001.66;;;25.03;61.03
65997;BME280;52765;52.258;21.052;2023-07-30T10:25:42;100013.63;;;25.14;60.16
65997;BME280;52765;52.258;21.052;2023-07-30T10:28:08;100009.69;;;24.77;59.46
65997;BME280;52765;52.258;21.052;2023-07-30T10:30:34;100002.22;;;24.50;59.89
65997;BME280;52765;52.258;21.052;2023-07-30T10:33:06;99997.59;;;24.34;59.06
65997;BME280;52765;52.258;21.052;2023-07-30T10:35:34;99998.72;;;24.82;59.28
65997;BME280;52765;52.258;21.052;2023-07-30T10:38:00;99994.59;;;25.12;57.40
65997;BME280;52765;52.258;21.052;2023-07-30T10:40:25;99989.66;;;25.14;57.01
65997;BME280;52765;52.258;21.052;2023-07-30T10:42:53;99986.59;;;25.43;56.80
65997;BME280;52765;52.258;21.052;2023-07-30T10:45:18;99988.84;;;25.51;56.37
65997;BME280;52765;52.258;21.052;2023-07-30T10:47:44;99987.53;;;25.59;56.05
65997;BME280;52765;52.258;21.052;2023-07-30T10:50:09;99985.34;;;25.61;56.08
65997;BME280;52765;52.258;21.052;2023-07-30T10:52:36;99987.53;;;25.59;56.17
65997;BME280;52765;52.258;21.052;2023-07-30T10:55:02;99985.84;;;25.20;55.68
65997;BME280;52765;52.258;21.052;2023-07-30T10:57:31;99974.31;;;24.96;57.44
65997;BME280;52765;52.258;21.052;2023-07-30T10:59:59;99977.72;;;25.03;56.25
65997;BME280;52765;52.258;21.052;2023-07-30T11:02:25;99977.34;;;24.94;55.03
65997;BME280;52765;52.258;21.052;2023-07-30T11:04:50;99977.97;;;25.02;56.25
65997;BME280;52765;52.258;21.052;2023-07-30T11:07:17;99983.53;;;25.07;57.28
65997;BME280;52765;52.258;21.052;2023-07-30T11:09:44;99995.84;;;24.99;56.71
65997;BME280;52765;52.258;21.052;2023-07-30T11:12:09;99982.28;;;25.20;56.46
65997;BME280;52765;52.258;21.052;2023-07-30T11:14:35;99983.50;;;25.02;57.02
65997;BME280;52765;52.258;21.052;2023-07-30T11:17:01;99990.91;;;25.01;57.34
65997;BME280;52765;52.258;21.052;2023-07-30T11:19:28;99987.38;;;25.06;57.10
65997;BME280;52765;52.258;21.052;2023-07-30T11:21:55;99976.56;;;24.99;56.32
65997;BME280;52765;52.258;21.052;2023-07-30T11:24:43;99964.03;;;25.14;56.57
65997;BME280;52765;52.258;21.052;2023-07-30T11:27:08;99975.72;;;25.63;55.42
65997;BME280;52765;52.258;21.052;2023-07-30T11:29:33;99966.34;;;26.12;53.62
65997;BME280;52765;52.258;21.052;2023-07-30T11:31:59;99969.78;;;26.40;50.90
65997;BME280;52765;52.258;21.052;2023-07-30T11:34:26;99969.78;;;26.40;50.57
65997;BME280;52765;52.258;21.052;2023-07-30T11:36:51;99961.84;;;26.69;49.51
65997;BME280;52765;52.258;21.052;2023-07-30T11:39:18;99962.72;;;26.90;49.52
65997;BME280;52765;52.258;21.052;2023-07-30T11:41:43;99958.84;;;27.07;49.21
65997;BME280;52765;52.258;21.052;2023-07-30T11:44:29;99943.38;;;27.26;48.42
65997;BME280;52765;52.258;21.052;2023-07-30T11:46:54;99958.03;;;27.27;48.03
65997;BME280;52765;52.258;21.052;2023-07-30T11:49:20;99957.47;;;27.20;48.57
65997;BME280;52765;52.258;21.052;2023-07-30T11:51:47;99958.59;;;26.93;48.65
65997;BME280;52765;52.258;21.052;2023-07-30T11:54:20;99965.47;;;26.70;49.68
65997;BME280;52765;52.258;21.052;2023-07-30T11:56:46;99965.94;;;26.56;50.10
65997;BME280;52765;52.258;21.052;2023-07-30T11:59:12;99963.13;;;26.36;50.00
65997;BME280;52765;52.258;21.052;2023-07-30T12:01:37;99970.69;;;25.98;50.93
65997;BME280;52765;52.258;21.052;2023-07-30T12:04:08;99962.00;;;25.74;52.38
65997;BME280;52765;52.258;21.052;2023-07-30T12:06:42;99963.31;;;25.66;52.57
65997;BME280;52765;52.258;21.052;2023-07-30T12:09:22;99963.75;;;25.47;52.20
65997;BME280;52765;52.258;21.052;2023-07-30T12:11:51;99973.25;;;25.29;52.80
65997;BME280;52765;52.258;21.052;2023-07-30T12:14:18;99961.47;;;25.39;52.66
65997;BME280;52765;52.258;21.052;2023-07-30T12:16:45;99957.84;;;25.76;52.13
65997;BME280;52765;52.258;21.052;2023-07-30T12:19:10;99974.00;;;25.52;52.58
65997;BME280;52765;52.258;21.052;2023-07-30T12:21:36;99972.56;;;25.49;52.99
65997;BME280;52765;52.258;21.052;2023-07-30T12:24:03;99963.28;;;25.61;52.92
65997;BME280;52765;52.258;21.052;2023-07-30T12:26:32;99967.25;;;25.38;53.68
65997;BME280;52765;52.258;21.052;2023-07-30T12:28:58;99963.94;;;25.36;54.62
65997;BME280;52765;52.258;21.052;2023-07-30T12:31:24;99958.31;;;25.25;53.93
65997;BME280;52765;52.258;21.052;2023-07-30T12:33:50;99957.09;;;25.38;53.97
65997;BME280;52765;52.258;21.052;2023-07-30T12:36:16;99962.34;;;25.93;53.72
65997;BME280;52765;52.258;21.052;2023-07-30T12:38:42;99958.88;;;26.08;51.74